sensor_id;sensor_type;location;lat;lon;timestamp;pressure;altitude;pressure_sealevel;temperature;humidity
11395;BME280;5753;54.402;10.220;2022-10-17T00:02:01;102083.44;;;22.48;43.66
11395;BME280;5753;54.402;10.220;2022-10-17T00:04:28;102085.63;;;22.80;42.77
11395;BME280;5753;54.402;10.220;2022-10-17T00:06:54;102088.59;;;22.55;43.17
11395;BME280;5753;54.402;10.220;2022-10-17T00:09:20;102093.22;;;22.38;43.76
11395;BME280;5753;54.402;10.220;2022-10-17T00:11:46;102091.88;;;22.70;43.00
11395;BME280;5753;54.402;10.220;2022-10-17T00:14:12;102098.63;;;22.23;44.02
11395;BME280;5753;54.402;10.220;2022-10-17T00:16:38;102094.59;;;22.63;43.14
11395;BME280;5753;54.402;10.220;2022-10-17T00:19:05;102087.91;;;23.03;42.21
11395;BME280;5753;54.402;10.220;2022-10-17T00:21:33;102082.66;;;23.03;42.06
11395;BME280;5753;54.402;10.220;2022-10-17T00:24:00;102087.88;;;23.04;42.26
11395;BME280;5753;54.402;10.220;2022-10-17T00:26:26;102093.81;;;23.17;41.81
11395;BME280;5753;54.402;10.220;2022-10-17T00:28:55;102086.91;;;23.11;41.70
11395;BME280;5753;54.402;10.220;2022-10-17T00:31:23;102096.53;;;23.12;41.88
11395;BME280;5753;54.402;10.220;2022-10-17T00:33:49;102093.94;;;23.09;41.96
11395;BME280;5753;54.402;10.220;2022-10-17T00:36:22;102094.75;;;23.13;42.13
11395;BME280;5753;54.402;10.220;2022-10-17T00:38:51;102093.94;;;23.09;41.98
11395;BME280;5753;54.402;10.220;2022-10-17T00:41:21;102095.06;;;22.95;42.35
11395;BME280;5753;54.402;10.220;2022-10-17T00:46:19;102086.28;;;22.96;42.10
11395;BME280;5753;54.402;10.220;2022-10-17T00:48:46;102093.19;;;23.01;41.96
11395;BME280;5753;54.402;10.220;2022-10-17T00:51:14;102095.19;;;22.87;42.17
11395;BME280;5753;54.402;10.220;2022-10-17T00:53:40;102085.75;;;22.72;42.44
11395;BME280;5753;54.402;10.220;2022-10-17T00:56:07;102089.84;;;22.91;42.13
11395;BME280;5753;54.402;10.220;2022-10-17T00:58:33;102085.41;;;22.95;42.00
11395;BME280;5753;54.402;10.220;2022-10-17T01:01:01;102083.72;;;22.91;42.14
11395;BME280;5753;54.402;10.220;2022-10-17T01:03:27;102083.53;;;23.03;41.81
11395;BME280;5753;54.402;10.220;2022-10-17T01:05:54;102078.44;;;22.92;42.02
11395;BME280;5753;54.402;10.220;2022-10-17T01:08:20;102079.50;;;22.79;42.68
11395;BME280;5753;54.402;10.220;2022-10-17T01:11:04;102073.16;;;22.94;42.39
11395;BME280;5753;54.402;10.220;2022-10-17T01:13:50;102071.63;;;22.81;42.62
11395;BME280;5753;54.402;10.220;2022-10-17T01:16:50;102080.00;;;23.04;42.44
11395;BME280;5753;54.402;10.220;2022-10-17T01:22:06;102090.88;;;22.80;43.07
11395;BME280;5753;54.402;10.220;2022-10-17T01:33:34;102085.88;;;23.21;42.31
11395;BME280;5753;54.402;10.220;2022-10-17T01:39:12;102081.41;;;23.27;42.12
11395;BME280;5753;54.402;10.220;2022-10-17T01:41:48;102073.97;;;23.50;41.68
11395;BME280;5753;54.402;10.220;2022-10-17T01:44:31;102078.78;;;23.27;42.04
11395;BME280;5753;54.402;10.220;2022-10-17T01:47:05;102071.63;;;23.33;42.02
11395;BME280;5753;54.402;10.220;2022-10-17T01:49:34;102072.97;;;23.57;41.77
11395;BME280;5753;54.402;10.220;2022-10-17T01:52:09;102077.50;;;23.49;41.88
11395;BME280;5753;54.402;10.220;2022-10-17T01:54:39;102074.56;;;22.56;43.40
11395;BME280;5753;54.402;10.220;2022-10-17T01:57:19;102072.94;;;23.06;42.78
11395;BME280;5753;54.402;10.220;2022-10-17T01:59:50;102063.19;;;22.56;43.85
11395;BME280;5753;54.402;10.220;2022-10-17T02:02:18;102069.72;;;22.90;43.09
11395;BME280;5753;54.402;10.220;2022-10-17T02:04:46;102062.28;;;23.15;42.28
11395;BME280;5753;54.402;10.220;2022-10-17T02:07:14;102051.56;;;23.28;42.13
11395;BME280;5753;54.402;10.220;2022-10-17T02:09:40;102043.16;;;23.57;41.43
11395;BME280;5753;54.402;10.220;2022-10-17T02:17:41;102046.59;;;23.09;42.42
11395;BME280;5753;54.402;10.220;2022-10-17T02:20:28;102042.19;;;23.62;41.35
11395;BME280;5753;54.402;10.220;2022-10-17T02:22:57;102046.50;;;23.66;41.36
11395;BME280;5753;54.402;10.220;2022-10-17T02:25:51;102052.38;;;23.80;41.09
11395;BME280;5753;54.402;10.220;2022-10-17T02:31:14;102055.59;;;23.95;40.95
11395;BME280;5753;54.402;10.220;2022-10-17T02:36:22;102050.50;;;23.85;41.04
11395;BME280;5753;54.402;10.220;2022-10-17T02:38:51;102049.28;;;24.02;40.92
11395;BME280;5753;54.402;10.220;2022-10-17T02:41:21;102046.38;;;24.15;40.35
11395;BME280;5753;54.402;10.220;2022-10-17T02:43:49;102043.41;;;24.32;40.24
11395;BME280;5753;54.402;10.220;2022-10-17T02:46:18;102045.69;;;24.06;40.59
11395;BME280;5753;54.402;10.220;2022-10-17T02:49:37;102032.34;;;24.15;40.71
11395;BME280;5753;54.402;10.220;2022-10-17T02:52:03;102044.03;;;24.02;41.10
11395;BME280;5753;54.402;10.220;2022-10-17T02:54:52;102028.81;;;24.16;40.67
11395;BME280;5753;54.402;10.220;2022-10-17T02:58:01;102040.81;;;24.31;40.48
11395;BME280;5753;54.402;10.220;2022-10-17T03:00:26;102041.16;;;24.14;40.80
11395;BME280;5753;54.402;10.220;2022-10-17T03:02:55;102026.25;;;24.13;40.54
11395;BME280;5753;54.402;10.220;2022-10-17T03:05:27;102023.53;;;24.16;40.70
11395;BME280;5753;54.402;10.220;2022-10-17T03:07:54;102015.88;;;24.04;40.87
11395;BME280;5753;54.402;10.220;2022-10-17T03:10:21;102020.13;;;24.11;40.28
11395;BME280;5753;54.402;10.220;2022-10-17T03:12:48;102022.13;;;24.00;40.67
11395;BME280;5753;54.402;10.220;2022-10-17T03:15:14;102019.28;;;23.67;41.64
11395;BME280;5753;54.402;10.220;2022-10-17T03:17:40;102013.44;;;23.95;40.92
11395;BME280;5753;54.402;10.220;2022-10-17T03:20:07;102026.44;;;24.02;40.63
11395;BME280;5753;54.402;10.220;2022-10-17T03:22:33;102023.94;;;23.96;40.78
11395;BME280;5753;54.402;10.220;2022-10-17T03:24:59;102015.56;;;24.19;40.25
11395;BME280;5753;54.402;10.220;2022-10-17T03:27:25;102023.22;;;24.31;39.90
11395;BME280;5753;54.402;10.220;2022-10-17T03:29:51;102018.34;;;24.13;40.24
11395;BME280;5753;54.402;10.220;2022-10-17T03:32:18;102020.44;;;23.96;40.61
11395;BME280;5753;54.402;10.220;2022-10-17T03:34:44;102012.94;;;24.19;40.29
11395;BME280;5753;54.402;10.220;2022-10-17T03:37:10;102011.44;;;24.06;40.25
11395;BME280;5753;54.402;10.220;2022-10-17T03:39:36;102020.44;;;23.96;40.73
11395;BME280;5753;54.402;10.220;2022-10-17T03:42:02;102020.25;;;24.05;40.26
11395;BME280;5753;54.402;10.220;2022-10-17T03:44:28;102016.38;;;23.81;40.92
11395;BME280;5753;54.402;10.220;2022-10-17T03:46:54;102007.59;;;24.22;40.06
11395;BME280;5753;54.402;10.220;2022-10-17T03:49:20;101999.72;;;24.21;40.23
11395;BME280;5753;54.402;10.220;2022-10-17T03:51:46;101991.66;;;24.30;39.60
11395;BME280;5753;54.402;10.220;2022-10-17T03:54:12;101998.47;;;24.38;39.59
11395;BME280;5753;54.402;10.220;2022-10-17T03:56:39;101991.16;;;24.09;40.23
11395;BME280;5753;54.402;10.220;2022-10-17T03:59:05;101987.88;;;24.00;40.21
11395;BME280;5753;54.402;10.220;2022-10-17T04:01:31;101990.59;;;23.50;41.27
11395;BME280;5753;54.402;10.220;2022-10-17T04:03:57;102005.16;;;24.13;40.15
11395;BME280;5753;54.402;10.220;2022-10-17T04:06:23;102001.28;;;24.31;40.21
11395;BME280;5753;54.402;10.220;2022-10-17T04:08:50;101998.09;;;24.54;39.65
11395;BME280;5753;54.402;10.220;2022-10-17T04:11:20;101989.13;;;24.24;40.23
11395;BME280;5753;54.402;10.220;2022-10-17T04:13:47;101983.97;;;24.19;40.11
11395;BME280;5753;54.402;10.220;2022-10-17T04:16:17;101993.22;;;23.97;40.43
11395;BME280;5753;54.402;10.220;2022-10-17T04:18:43;101986.91;;;24.04;40.87
11395;BME280;5753;54.402;10.220;2022-10-17T04:21:10;101978.72;;;24.17;40.64
11395;BME280;5753;54.402;10.220;2022-10-17T04:23:37;101970.25;;;23.60;41.43
11395;BME280;5753;54.402;10.220;2022-10-17T04:26:04;101967.31;;;23.31;42.33
11395;BME280;5753;54.402;10.220;2022-10-17T04:28:32;101969.06;;;24.18;40.94
11395;BME280;5753;54.402;10.220;2022-10-17T04:31:05;101980.91;;;23.97;41.14
11395;BME280;5753;54.402;10.220;2022-10-17T04:33:34;101980.50;;;23.75;41.32
11395;BME280;5753;54.402;10.220;2022-10-17T04:36:05;101980.53;;;23.74;41.40
11395;BME280;5753;54.402;10.220;2022-10-17T04:38:31;101985.97;;;24.06;41.20
11395;BME280;5753;54.402;10.220;2022-10-17T04:41:02;101987.56;;;23.73;41.98
11395;BME280;5753;54.402;10.220;2022-10-17T04:43:37;101976.44;;;24.01;41.61
11395;BME280;5753;54.402;10.220;2022-10-17T04:46:09;101963.06;;;24.10;41.27
11395;BME280;5753;54.402;10.220;2022-10-17T04:48:36;101958.47;;;23.79;42.20
11395;BME280;5753;54.402;10.220;2022-10-17T04:51:11;101946.31;;;24.14;40.98
11395;BME280;5753;54.402;10.220;2022-10-17T04:53:39;101936.16;;;24.36;40.98
11395;BME280;5753;54.402;10.220;2022-10-17T04:56:14;101939.97;;;24.23;41.20
11395;BME280;5753;54.402;10.220;2022-10-17T04:58:41;101926.81;;;24.21;41.54
11395;BME280;5753;54.402;10.220;2022-10-17T05:01:13;101929.09;;;23.98;41.87
11395;BME280;5753;54.402;10.220;2022-10-17T05:03:39;101924.66;;;24.00;42.14
11395;BME280;5753;54.402;10.220;2022-10-17T05:06:19;101929.63;;;24.13;41.68
11395;BME280;5753;54.402;10.220;2022-10-17T05:08:46;101915.03;;;24.73;40.89
11395;BME280;5753;54.402;10.220;2022-10-17T05:11:24;101922.94;;;24.37;41.32
11395;BME280;5753;54.402;10.220;2022-10-17T05:13:56;101923.41;;;24.53;41.52
11395;BME280;5753;54.402;10.220;2022-10-17T05:16:23;101915.78;;;24.42;41.59
11395;BME280;5753;54.402;10.220;2022-10-17T05:18:51;101913.84;;;24.12;42.22
11395;BME280;5753;54.402;10.220;2022-10-17T05:21:18;101911.91;;;24.57;41.17
11395;BME280;5753;54.402;10.220;2022-10-17T05:23:44;101914.41;;;24.26;41.75
11395;BME280;5753;54.402;10.220;2022-10-17T05:26:11;101909.13;;;24.26;42.07
11395;BME280;5753;54.402;10.220;2022-10-17T05:28:37;101910.34;;;24.48;41.73
11395;BME280;5753;54.402;10.220;2022-10-17T05:31:04;101916.91;;;24.32;41.79
11395;BME280;5753;54.402;10.220;2022-10-17T05:33:31;101921.22;;;24.36;42.04
11395;BME280;5753;54.402;10.220;2022-10-17T05:35:58;101926.72;;;24.27;41.98
11395;BME280;5753;54.402;10.220;2022-10-17T05:38:24;101911.06;;;24.55;41.65
11395;BME280;5753;54.402;10.220;2022-10-17T05:40:51;101920.34;;;24.71;41.44
11395;BME280;5753;54.402;10.220;2022-10-17T05:43:17;101911.94;;;24.56;41.79
11395;BME280;5753;54.402;10.220;2022-10-17T05:45:43;101912.19;;;24.80;41.35
11395;BME280;5753;54.402;10.220;2022-10-17T05:48:09;101905.03;;;24.86;40.94
11395;BME280;5753;54.402;10.220;2022-10-17T05:50:36;101897.59;;;24.32;41.82
11395;BME280;5753;54.402;10.220;2022-10-17T05:53:02;101895.81;;;24.68;41.49
11395;BME280;5753;54.402;10.220;2022-10-17T05:55:28;101893.75;;;24.08;42.51
11395;BME280;5753;54.402;10.220;2022-10-17T05:57:54;101892.66;;;24.54;41.89
11395;BME280;5753;54.402;10.220;2022-10-17T06:00:21;101899.59;;;24.58;41.40
11395;BME280;5753;54.402;10.220;2022-10-17T06:02:47;101893.63;;;24.49;41.90
11395;BME280;5753;54.402;10.220;2022-10-17T06:05:14;101886.69;;;24.81;41.23
11395;BME280;5753;54.402;10.220;2022-10-17T06:07:40;101887.19;;;24.63;41.26
11395;BME280;5753;54.402;10.220;2022-10-17T06:10:07;101884.63;;;24.58;41.54
11395;BME280;5753;54.402;10.220;2022-10-17T06:12:33;101882.31;;;24.46;41.91
11395;BME280;5753;54.402;10.220;2022-10-17T06:14:59;101875.75;;;24.62;41.75
11395;BME280;5753;54.402;10.220;2022-10-17T06:17:25;101878.56;;;24.19;42.58
11395;BME280;5753;54.402;10.220;2022-10-17T06:19:52;101876.34;;;24.39;42.26
11395;BME280;5753;54.402;10.220;2022-10-17T06:22:19;101872.47;;;24.17;42.48
11395;BME280;5753;54.402;10.220;2022-10-17T06:24:45;101869.31;;;23.63;43.57
11395;BME280;5753;54.402;10.220;2022-10-17T06:27:11;101880.06;;;23.92;43.30
11395;BME280;5753;54.402;10.220;2022-10-17T06:29:37;101871.38;;;23.47;44.01
11395;BME280;5753;54.402;10.220;2022-10-17T06:32:04;101862.59;;;24.25;42.59
11395;BME280;5753;54.402;10.220;2022-10-17T06:34:30;101868.84;;;22.99;44.68
11395;BME280;5753;54.402;10.220;2022-10-17T06:36:56;101870.38;;;24.31;42.74
11395;BME280;5753;54.402;10.220;2022-10-17T06:39:22;101877.50;;;24.26;42.70
11395;BME280;5753;54.402;10.220;2022-10-17T06:41:51;101874.50;;;24.77;41.42
11395;BME280;5753;54.402;10.220;2022-10-17T06:44:17;101875.16;;;25.18;40.40
11395;BME280;5753;54.402;10.220;2022-10-17T06:46:43;101870.78;;;24.84;41.02
11395;BME280;5753;54.402;10.220;2022-10-17T06:49:10;101864.44;;;25.24;40.33
11395;BME280;5753;54.402;10.220;2022-10-17T06:51:37;101862.53;;;24.64;41.34
11395;BME280;5753;54.402;10.220;2022-10-17T06:54:03;101866.69;;;24.38;42.33
11395;BME280;5753;54.402;10.220;2022-10-17T06:56:29;101871.28;;;24.30;42.32
11395;BME280;5753;54.402;10.220;2022-10-17T06:58:56;101873.91;;;24.66;41.38
11395;BME280;5753;54.402;10.220;2022-10-17T07:01:22;101885.75;;;23.31;44.18
11395;BME280;5753;54.402;10.220;2022-10-17T07:03:48;101884.47;;;24.30;42.35
11395;BME280;5753;54.402;10.220;2022-10-17T07:06:17;101885.28;;;24.32;42.41
11395;BME280;5753;54.402;10.220;2022-10-17T07:08:44;101893.75;;;23.69;43.95
11395;BME280;5753;54.402;10.220;2022-10-17T07:11:13;101879.28;;;24.27;42.78
11395;BME280;5753;54.402;10.220;2022-10-17T07:13:39;101877.63;;;24.57;42.06
11395;BME280;5753;54.402;10.220;2022-10-17T07:16:06;101888.97;;;23.86;43.32
11395;BME280;5753;54.402;10.220;2022-10-17T07:18:32;101886.16;;;25.01;41.63
11395;BME280;5753;54.402;10.220;2022-10-17T07:20:58;101887.84;;;24.71;42.03
11395;BME280;5753;54.402;10.220;2022-10-17T07:23:24;101895.97;;;24.26;42.71
11395;BME280;5753;54.402;10.220;2022-10-17T07:25:51;101905.50;;;23.93;43.44
11395;BME280;5753;54.402;10.220;2022-10-17T07:28:17;101888.75;;;25.02;41.39
11395;BME280;5753;54.402;10.220;2022-10-17T07:30:43;101889.34;;;24.79;41.98
11395;BME280;5753;54.402;10.220;2022-10-17T07:33:10;101893.16;;;25.02;42.33
11395;BME280;5753;54.402;10.220;2022-10-17T07:35:37;101894.31;;;25.24;41.88
11395;BME280;5753;54.402;10.220;2022-10-17T07:38:06;101887.72;;;25.09;41.72
11395;BME280;5753;54.402;10.220;2022-10-17T07:40:32;101899.75;;;24.86;42.52
11395;BME280;5753;54.402;10.220;2022-10-17T07:42:58;101889.56;;;25.37;41.49
11395;BME280;5753;54.402;10.220;2022-10-17T07:45:24;101884.78;;;24.86;42.25
11395;BME280;5753;54.402;10.220;2022-10-17T07:47:55;101888.78;;;25.33;41.68
11395;BME280;5753;54.402;10.220;2022-10-17T07:50:22;101893.75;;;24.45;43.72
11395;BME280;5753;54.402;10.220;2022-10-17T07:52:48;101896.78;;;25.30;41.99
11395;BME280;5753;54.402;10.220;2022-10-17T07:55:14;101907.44;;;24.59;44.18
11395;BME280;5753;54.402;10.220;2022-10-17T07:57:40;101904.78;;;23.86;45.58
11395;BME280;5753;54.402;10.220;2022-10-17T08:00:07;101893.25;;;24.97;43.40
11395;BME280;5753;54.402;10.220;2022-10-17T08:02:34;101880.94;;;25.30;42.53
11395;BME280;5753;54.402;10.220;2022-10-17T08:05:00;101883.19;;;25.44;42.37
11395;BME280;5753;54.402;10.220;2022-10-17T08:07:26;101874.81;;;24.65;44.34
11395;BME280;5753;54.402;10.220;2022-10-17T08:09:52;101866.91;;;24.65;44.05
11395;BME280;5753;54.402;10.220;2022-10-17T08:12:18;101875.41;;;25.70;42.45
11395;BME280;5753;54.402;10.220;2022-10-17T08:14:44;101882.13;;;25.50;42.62
11395;BME280;5753;54.402;10.220;2022-10-17T08:17:10;101884.88;;;26.32;41.30
11395;BME280;5753;54.402;10.220;2022-10-17T08:19:40;101879.94;;;27.01;40.58
11395;BME280;5753;54.402;10.220;2022-10-17T08:22:06;101866.19;;;25.53;42.41
11395;BME280;5753;54.402;10.220;2022-10-17T08:24:32;101860.97;;;25.22;43.96
11395;BME280;5753;54.402;10.220;2022-10-17T08:26:59;101847.38;;;25.35;43.58
11395;BME280;5753;54.402;10.220;2022-10-17T08:29:26;101853.06;;;25.81;43.07
11395;BME280;5753;54.402;10.220;2022-10-17T08:31:52;101848.59;;;24.23;45.81
11395;BME280;5753;54.402;10.220;2022-10-17T08:34:18;101853.88;;;24.91;44.93
11395;BME280;5753;54.402;10.220;2022-10-17T08:36:44;101853.41;;;25.09;44.75
11395;BME280;5753;54.402;10.220;2022-10-17T08:39:10;101847.69;;;25.54;43.62
11395;BME280;5753;54.402;10.220;2022-10-17T08:41:48;101861.00;;;25.50;42.97
11395;BME280;5753;54.402;10.220;2022-10-17T08:44:36;101859.19;;;24.90;45.05
11395;BME280;5753;54.402;10.220;2022-10-17T08:47:11;101865.25;;;25.26;44.62
11395;BME280;5753;54.402;10.220;2022-10-17T08:49:52;101862.88;;;25.17;44.46
11395;BME280;5753;54.402;10.220;2022-10-17T08:52:42;101851.56;;;24.79;45.12
11395;BME280;5753;54.402;10.220;2022-10-17T08:55:31;101835.53;;;25.78;43.25
11395;BME280;5753;54.402;10.220;2022-10-17T08:57:58;101839.56;;;25.90;43.28
11395;BME280;5753;54.402;10.220;2022-10-17T09:00:24;101833.28;;;26.20;42.58
11395;BME280;5753;54.402;10.220;2022-10-17T09:05:56;101811.00;;;26.01;42.97
11395;BME280;5753;54.402;10.220;2022-10-17T09:11:42;101815.88;;;25.87;43.89
11395;BME280;5753;54.402;10.220;2022-10-17T09:14:17;101812.44;;;26.87;42.02
11395;BME280;5753;54.402;10.220;2022-10-17T09:17:15;101809.59;;;26.69;42.07
11395;BME280;5753;54.402;10.220;2022-10-17T09:22:34;101821.72;;;25.96;43.93
11395;BME280;5753;54.402;10.220;2022-10-17T09:25:05;101812.81;;;25.43;45.19
11395;BME280;5753;54.402;10.220;2022-10-17T09:27:46;101822.72;;;26.20;43.75
11395;BME280;5753;54.402;10.220;2022-10-17T09:32:40;101828.09;;;26.17;43.48
11395;BME280;5753;54.402;10.220;2022-10-17T09:35:12;101817.16;;;26.28;43.76
11395;BME280;5753;54.402;10.220;2022-10-17T09:37:39;101812.50;;;27.11;42.18
11395;BME280;5753;54.402;10.220;2022-10-17T09:40:12;101806.28;;;27.12;42.02
11395;BME280;5753;54.402;10.220;2022-10-17T09:42:41;101809.22;;;26.79;43.02
11395;BME280;5753;54.402;10.220;2022-10-17T09:45:18;101794.16;;;26.81;42.71
11395;BME280;5753;54.402;10.220;2022-10-17T09:50:56;101828.59;;;26.80;43.39
11395;BME280;5753;54.402;10.220;2022-10-17T09:53:30;101834.09;;;28.12;41.45
11395;BME280;5753;54.402;10.220;2022-10-17T09:56:01;101838.16;;;28.63;40.96
11395;BME280;5753;54.402;10.220;2022-10-17T09:59:04;101847.50;;;28.72;40.06
11395;BME280;5753;54.402;10.220;2022-10-17T10:01:31;101829.44;;;30.30;37.70
11395;BME280;5753;54.402;10.220;2022-10-17T10:04:14;101832.25;;;28.97;39.49
11395;BME280;5753;54.402;10.220;2022-10-17T10:07:01;101828.44;;;28.82;40.69
11395;BME280;5753;54.402;10.220;2022-10-17T10:09:30;101815.88;;;30.18;38.12
11395;BME280;5753;54.402;10.220;2022-10-17T10:11:58;101816.47;;;29.13;39.70
11395;BME280;5753;54.402;10.220;2022-10-17T10:14:36;101819.50;;;28.65;40.91
11395;BME280;5753;54.402;10.220;2022-10-17T10:17:23;101820.13;;;27.87;42.59
11395;BME280;5753;54.402;10.220;2022-10-17T10:19:51;101819.91;;;28.56;41.23
11395;BME280;5753;54.402;10.220;2022-10-17T10:22:19;101816.41;;;30.24;38.64
11395;BME280;5753;54.402;10.220;2022-10-17T10:27:32;101813.50;;;29.94;39.20
11395;BME280;5753;54.402;10.220;2022-10-17T10:29:59;101815.81;;;29.83;39.13
11395;BME280;5753;54.402;10.220;2022-10-17T10:32:34;101823.00;;;28.25;42.33
11395;BME280;5753;54.402;10.220;2022-10-17T10:37:50;101826.19;;;28.73;41.54
11395;BME280;5753;54.402;10.220;2022-10-17T10:40:43;101830.25;;;29.21;40.63
11395;BME280;5753;54.402;10.220;2022-10-17T10:43:21;101829.31;;;29.22;40.81
11395;BME280;5753;54.402;10.220;2022-10-17T10:48:24;101832.19;;;28.16;42.53
11395;BME280;5753;54.402;10.220;2022-10-17T10:56:37;101819.25;;;29.49;40.26
11395;BME280;5753;54.402;10.220;2022-10-17T11:06:49;101817.28;;;30.42;39.19
11395;BME280;5753;54.402;10.220;2022-10-17T11:12:08;101813.38;;;30.15;39.89
11395;BME280;5753;54.402;10.220;2022-10-17T11:14:42;101820.72;;;28.15;42.79
11395;BME280;5753;54.402;10.220;2022-10-17T11:17:15;101831.00;;;30.34;38.94
11395;BME280;5753;54.402;10.220;2022-10-17T11:20:10;101830.22;;;30.32;39.39
11395;BME280;5753;54.402;10.220;2022-10-17T11:23:28;101826.63;;;28.22;43.69
11395;BME280;5753;54.402;10.220;2022-10-17T11:25:48;101840.28;;;28.96;42.12
11395;BME280;5753;54.402;10.220;2022-10-17T11:28:17;101852.53;;;28.37;43.50
11395;BME280;5753;54.402;10.220;2022-10-17T11:33:43;101832.16;;;28.38;43.39
11395;BME280;5753;54.402;10.220;2022-10-17T11:36:11;101835.13;;;28.93;42.67
11395;BME280;5753;54.402;10.220;2022-10-17T11:38:47;101832.22;;;27.94;44.38
11395;BME280;5753;54.402;10.220;2022-10-17T11:41:35;101848.91;;;29.01;42.62
11395;BME280;5753;54.402;10.220;2022-10-17T11:44:04;101874.03;;;29.31;42.06
11395;BME280;5753;54.402;10.220;2022-10-17T11:46:34;101859.22;;;28.26;43.73
11395;BME280;5753;54.402;10.220;2022-10-17T11:51:48;101866.09;;;29.69;41.42
11395;BME280;5753;54.402;10.220;2022-10-17T11:57:15;101849.81;;;29.58;41.06
11395;BME280;5753;54.402;10.220;2022-10-17T11:59:57;101860.19;;;27.09;46.40
11395;BME280;5753;54.402;10.220;2022-10-17T12:02:51;101873.25;;;27.37;46.32
11395;BME280;5753;54.402;10.220;2022-10-17T12:08:04;101880.75;;;29.01;43.12
11395;BME280;5753;54.402;10.220;2022-10-17T12:10:44;101879.78;;;28.81;42.98
11395;BME280;5753;54.402;10.220;2022-10-17T12:15:57;101877.75;;;29.85;41.53
11395;BME280;5753;54.402;10.220;2022-10-17T12:18:43;101855.47;;;30.58;40.50
11395;BME280;5753;54.402;10.220;2022-10-17T12:21:09;101847.91;;;29.97;40.97
11395;BME280;5753;54.402;10.220;2022-10-17T12:23:36;101830.09;;;28.87;42.77
11395;BME280;5753;54.402;10.220;2022-10-17T12:26:08;101819.06;;;29.71;41.29
11395;BME280;5753;54.402;10.220;2022-10-17T12:28:44;101825.69;;;30.34;40.59
11395;BME280;5753;54.402;10.220;2022-10-17T12:31:22;101834.78;;;29.19;42.14
11395;BME280;5753;54.402;10.220;2022-10-17T12:46:47;101860.88;;;29.86;41.34
11395;BME280;5753;54.402;10.220;2022-10-17T12:54:45;101862.59;;;28.92;43.00
11395;BME280;5753;54.402;10.220;2022-10-17T13:05:33;101901.78;;;27.54;47.06
11395;BME280;5753;54.402;10.220;2022-10-17T13:08:04;101917.28;;;26.39;50.56
11395;BME280;5753;54.402;10.220;2022-10-17T13:10:34;101918.88;;;28.36;46.18
11395;BME280;5753;54.402;10.220;2022-10-17T13:13:35;101906.19;;;26.55;51.50
11395;BME280;5753;54.402;10.220;2022-10-17T13:16:03;101905.53;;;27.72;49.86
11395;BME280;5753;54.402;10.220;2022-10-17T13:18:29;101881.50;;;27.29;50.71
11395;BME280;5753;54.402;10.220;2022-10-17T13:23:31;101889.38;;;27.31;50.91
11395;BME280;5753;54.402;10.220;2022-10-17T13:26:06;101910.81;;;26.47;52.96
11395;BME280;5753;54.402;10.220;2022-10-17T13:28:33;101923.34;;;26.93;52.81
11395;BME280;5753;54.402;10.220;2022-10-17T13:30:59;101924.97;;;26.46;54.57
11395;BME280;5753;54.402;10.220;2022-10-17T13:33:37;101939.31;;;26.39;55.71
11395;BME280;5753;54.402;10.220;2022-10-17T13:36:11;101934.00;;;26.92;54.23
11395;BME280;5753;54.402;10.220;2022-10-17T13:38:40;101951.91;;;25.41;58.53
11395;BME280;5753;54.402;10.220;2022-10-17T13:41:11;101963.78;;;25.88;59.05
11395;BME280;5753;54.402;10.220;2022-10-17T13:43:41;101944.88;;;26.58;56.04
11395;BME280;5753;54.402;10.220;2022-10-17T13:46:11;101931.41;;;26.90;53.44
11395;BME280;5753;54.402;10.220;2022-10-17T13:48:41;101935.66;;;28.14;50.71
11395;BME280;5753;54.402;10.220;2022-10-17T13:51:09;101928.03;;;27.12;53.22
11395;BME280;5753;54.402;10.220;2022-10-17T13:53:38;101905.78;;;28.95;48.92
11395;BME280;5753;54.402;10.220;2022-10-17T13:56:18;101902.31;;;27.64;53.16
11395;BME280;5753;54.402;10.220;2022-10-17T13:58:56;101890.22;;;28.66;49.24
11395;BME280;5753;54.402;10.220;2022-10-17T14:01:26;101886.31;;;28.10;50.56
11395;BME280;5753;54.402;10.220;2022-10-17T14:03:53;101874.75;;;28.75;49.43
11395;BME280;5753;54.402;10.220;2022-10-17T14:06:23;101879.41;;;27.63;52.26
11395;BME280;5753;54.402;10.220;2022-10-17T14:08:59;101877.94;;;28.83;49.42
11395;BME280;5753;54.402;10.220;2022-10-17T14:13:56;101876.28;;;28.61;49.78
11395;BME280;5753;54.402;10.220;2022-10-17T14:16:23;101889.13;;;27.62;53.37
11395;BME280;5753;54.402;10.220;2022-10-17T14:18:52;101875.28;;;28.63;49.98
11395;BME280;5753;54.402;10.220;2022-10-17T14:21:22;101881.00;;;28.54;49.54
11395;BME280;5753;54.402;10.220;2022-10-17T14:23:49;101888.91;;;27.43;52.75
11395;BME280;5753;54.402;10.220;2022-10-17T14:26:22;101888.63;;;27.98;51.27
11395;BME280;5753;54.402;10.220;2022-10-17T14:29:06;101900.00;;;27.54;52.96
11395;BME280;5753;54.402;10.220;2022-10-17T14:31:41;101919.94;;;26.65;57.54
11395;BME280;5753;54.402;10.220;2022-10-17T14:34:21;101929.78;;;27.36;54.72
11395;BME280;5753;54.402;10.220;2022-10-17T14:36:50;101938.63;;;28.29;51.74
11395;BME280;5753;54.402;10.220;2022-10-17T14:39:22;101934.84;;;26.92;56.50
11395;BME280;5753;54.402;10.220;2022-10-17T14:41:50;101937.94;;;27.07;55.46
11395;BME280;5753;54.402;10.220;2022-10-17T14:44:37;101930.66;;;26.34;59.50
11395;BME280;5753;54.402;10.220;2022-10-17T14:47:04;101949.41;;;27.55;53.35
11395;BME280;5753;54.402;10.220;2022-10-17T14:49:37;101955.22;;;27.17;54.17
11395;BME280;5753;54.402;10.220;2022-10-17T14:54:44;101958.56;;;26.71;55.62
11395;BME280;5753;54.402;10.220;2022-10-17T14:59:52;101966.41;;;28.18;50.29
11395;BME280;5753;54.402;10.220;2022-10-17T15:02:18;101969.19;;;27.70;51.64
11395;BME280;5753;54.402;10.220;2022-10-17T15:04:44;101978.50;;;28.49;49.41
11395;BME280;5753;54.402;10.220;2022-10-17T15:07:13;101972.19;;;28.30;49.92